Time;durP1;ratioP1;P1;durP2;ratioP2;P2;SDS_P1;SDS_P2;PMS_P1;PMS_P2;Temp;Humidity;BMP_temperature;BMP_pressure;BME280_temperature;BME280_humidity;BME280_pressure;Samples;Min_cycle;Max_cycle;Signal;HPM_P1;HPM_P2
2023/01/12 00:01:10;;;;;;;17.30;11.10;;;;;;;6.81;82.59;100203.55;129942;1270;128806;-70
2023/01/12 00:04:13;;;;;;;16.60;11.10;;;;;;;6.81;82.72;100205.14;129876;1276;114824;-61
2023/01/12 00:07:16;;;;;;;16.20;10.90;;;;;;;6.81;82.48;100209.40;130008;1259;114706;-57
2023/01/12 00:10:19;;;;;;;17.10;11.70;;;;;;;6.81;82.57;100207.43;130145;1257;115183;-59
2023/01/12 00:13:21;;;;;;;16.20;11.60;;;;;;;6.82;82.56;100212.71;130180;1266;114843;-59
2023/01/12 00:16:33;;;;;;;18.00;11.00;;;;;;;6.83;82.65;100216.05;129871;1260;114876;-58
2023/01/12 00:19:37;;;;;;;13.80;10.30;;;;;;;6.84;82.56;100217.81;129676;1276;128435;-56
2023/01/12 00:22:40;;;;;;;13.10;10.00;;;;;;;6.84;82.64;100223.83;129924;1257;115227;-60
2023/01/12 00:25:42;;;;;;;14.50;10.50;;;;;;;6.85;82.62;100225.77;129913;1258;115396;-58
2023/01/12 00:28:44;;;;;;;13.40;10.30;;;;;;;6.83;82.68;100228.31;130007;1254;115077;-59
2023/01/12 00:31:46;;;;;;;16.30;10.90;;;;;;;6.82;82.72;100233.15;130028;1255;114746;-57
2023/01/12 00:34:48;;;;;;;15.20;10.70;;;;;;;6.80;82.70;100232.29;130020;1276;114841;-58
2023/01/12 00:37:51;;;;;;;15.60;10.40;;;;;;;6.80;82.64;100237.28;129908;1255;114793;-57
2023/01/12 00:40:53;;;;;;;17.60;11.60;;;;;;;6.78;82.64;100242.49;129953;1258;115305;-58
2023/01/12 00:47:16;;;;;;;15.90;9.70;;;;;;;6.72;82.60;100244.50;129947;1266;114831;-58
2023/01/12 00:50:18;;;;;;;13.10;9.40;;;;;;;6.68;82.78;100249.06;130042;1257;114793;-58
2023/01/12 00:53:21;;;;;;;11.40;9.10;;;;;;;6.63;82.74;100252.95;129930;1254;114767;-59
2023/01/12 00:56:23;;;;;;;12.50;8.60;;;;;;;6.59;82.51;100257.89;130151;1262;114745;-60
2023/01/12 00:59:25;;;;;;;15.90;8.60;;;;;;;6.55;82.73;100264.41;129897;1276;129239;-61
2023/01/12 01:02:27;;;;;;;11.80;8.60;;;;;;;6.50;82.61;100268.48;130139;1256;114680;-61
2023/01/12 01:05:30;;;;;;;13.00;8.60;;;;;;;6.45;82.63;100272.74;130123;1256;114701;-69
2023/01/12 01:08:36;;;;;;;14.70;8.70;;;;;;;6.40;82.55;100271.83;130101;1257;114779;-67
2023/01/12 01:11:39;;;;;;;15.10;8.90;;;;;;;6.35;82.47;100279.09;130026;1254;114696;-62
2023/01/12 01:14:41;;;;;;;15.10;8.50;;;;;;;6.30;82.47;100282.08;129964;1258;115147;-59
2023/01/12 01:17:44;;;;;;;11.60;8.30;;;;;;;6.25;82.65;100279.02;130079;1255;114791;-59
2023/01/12 01:20:46;;;;;;;16.90;8.80;;;;;;;6.20;82.69;100280.44;129937;1255;114703;-58
2023/01/12 01:23:49;;;;;;;14.20;8.60;;;;;;;6.15;82.61;100278.98;130010;1257;114737;-62
2023/01/12 01:26:52;;;;;;;10.90;8.20;;;;;;;6.11;82.67;100281.09;129911;1259;114742;-58
2023/01/12 01:29:54;;;;;;;12.40;8.60;;;;;;;6.06;82.69;100279.80;130146;1257;114847;-59
2023/01/12 01:32:56;;;;;;;11.40;8.00;;;;;;;6.02;82.80;100287.55;130033;1267;114737;-57
2023/01/12 01:35:59;;;;;;;10.80;8.70;;;;;;;5.99;82.83;100294.73;129965;1259;114882;-59
2023/01/12 01:39:01;;;;;;;12.10;8.70;;;;;;;5.93;82.69;100298.79;129955;1276;128351;-59
2023/01/12 01:42:03;;;;;;;13.10;9.80;;;;;;;5.89;82.89;100299.44;130072;1257;114700;-61
2023/01/12 01:45:08;;;;;;;14.80;9.20;;;;;;;5.85;82.85;100300.80;129941;1254;114772;-60
2023/01/12 01:48:13;;;;;;;12.50;8.10;;;;;;;5.80;82.83;100299.70;129737;1258;114879;-62
2023/01/12 01:51:16;;;;;;;15.10;9.20;;;;;;;5.76;82.85;100294.85;129652;1254;115299;-64
2023/01/12 01:54:18;;;;;;;12.50;8.50;;;;;;;5.72;82.86;100290.19;130013;1257;114720;-65
2023/01/12 01:57:23;;;;;;;14.50;8.70;;;;;;;5.68;82.68;100288.55;130003;1254;116421;-64
2023/01/12 02:00:26;;;;;;;11.00;7.90;;;;;;;5.63;82.77;100289.59;129549;1260;430305;-58
2023/01/12 02:03:29;;;;;;;17.10;9.20;;;;;;;5.58;82.96;100291.31;129931;1257;114687;-58
2023/01/12 02:06:32;;;;;;;15.30;9.90;;;;;;;5.55;83.14;100291.58;130083;1257;114718;-58
2023/01/12 02:09:34;;;;;;;13.60;9.90;;;;;;;5.51;83.17;100287.80;129968;1254;114783;-58
2023/01/12 02:16:24;;;;;;;19.90;12.90;;;;;;;5.46;83.48;100289.88;129956;1257;115365;-61
2023/01/12 02:19:51;;;;;;;20.10;12.30;;;;;;;5.45;83.61;100286.73;129977;1276;128992;-59
2023/01/12 02:23:18;;;;;;;18.80;11.00;;;;;;;5.43;83.56;100290.51;129744;1270;115132;-62
2023/01/12 02:26:58;;;;;;;17.90;9.90;;;;;;;5.41;83.52;100291.27;129941;1257;114865;-56
2023/01/12 02:30:32;;;;;;;20.20;10.80;;;;;;;5.38;83.61;100298.44;130115;1257;114799;-56
2023/01/12 02:33:53;;;;;;;17.20;10.00;;;;;;;5.37;83.80;100304.49;129964;1257;114697;-60
2023/01/12 02:37:06;;;;;;;19.50;11.10;;;;;;;5.34;83.76;100302.98;129641;1276;129680;-60
2023/01/12 02:40:45;;;;;;;15.60;10.60;;;;;;;5.32;83.75;100305.67;130009;1276;114718;-58
2023/01/12 02:43:48;;;;;;;17.20;9.50;;;;;;;5.28;83.47;100308.63;130002;1253;114773;-56
2023/01/12 02:46:51;;;;;;;15.70;9.50;;;;;;;5.23;83.26;100300.97;130103;1252;115225;-57
2023/01/12 02:49:55;;;;;;;14.80;9.50;;;;;;;5.17;83.21;100300.95;129989;1254;114722;-58
2023/01/12 02:53:04;;;;;;;16.70;9.70;;;;;;;5.12;83.07;100305.36;130059;1276;128771;-58
2023/01/12 02:56:06;;;;;;;17.90;10.40;;;;;;;5.05;83.25;100305.35;130153;1259;115298;-57
2023/01/12 03:02:37;;;;;;;14.30;10.30;;;;;;;4.92;82.97;100297.38;129519;1276;114864;-61
2023/01/12 03:05:40;;;;;;;16.90;9.20;;;;;;;4.87;83.11;100306.90;129750;1272;114864;-63
2023/01/12 03:08:43;;;;;;;14.60;9.90;;;;;;;4.83;83.30;100309.11;129693;1260;114806;-63
2023/01/12 03:11:48;;;;;;;14.90;9.80;;;;;;;4.79;83.06;100306.05;129559;1264;114756;-64
2023/01/12 03:14:52;;;;;;;13.60;9.00;;;;;;;4.74;83.01;100304.20;129637;1258;114841;-65
2023/01/12 03:17:59;;;;;;;13.90;9.40;;;;;;;4.69;83.05;100310.17;129571;1264;116367;-64
2023/01/12 03:21:12;;;;;;;18.20;10.30;;;;;;;4.63;83.01;100313.85;129476;1257;114818;-63
2023/01/12 03:24:18;;;;;;;14.70;10.60;;;;;;;4.58;82.87;100306.90;129541;1259;128951;-64
2023/01/12 03:27:25;;;;;;;17.40;10.80;;;;;;;4.51;82.96;100309.89;129572;1275;115204;-64
2023/01/12 03:30:35;;;;;;;16.60;10.60;;;;;;;4.45;83.02;100311.13;129786;1257;114787;-63
2023/01/12 03:33:40;;;;;;;16.80;10.70;;;;;;;4.38;82.89;100299.42;129407;1258;114829;-63
2023/01/12 03:36:51;;;;;;;16.40;10.00;;;;;;;4.32;82.79;100297.98;129481;1262;114738;-62
2023/01/12 03:39:57;;;;;;;18.60;12.00;;;;;;;4.26;83.07;100295.45;129539;1281;128403;-64
2023/01/12 03:43:15;;;;;;;16.50;11.40;;;;;;;4.22;83.27;100291.67;129516;1281;115246;-64
2023/01/12 03:46:23;;;;;;;17.80;12.30;;;;;;;4.18;83.34;100289.66;129436;1260;115018;-76
2023/01/12 03:49:35;;;;;;;19.00;11.60;;;;;;;4.15;83.42;100287.08;129544;1262;114894;-67
2023/01/12 03:52:39;;;;;;;18.40;12.10;;;;;;;4.12;83.49;100287.31;129583;1262;114912;-63
2023/01/12 03:55:42;;;;;;;22.00;13.20;;;;;;;4.09;83.75;100300.63;129649;1281;128700;-64
2023/01/12 03:58:45;;;;;;;21.30;12.70;;;;;;;4.08;83.61;100309.14;129790;1257;115179;-65
2023/01/12 04:01:48;;;;;;;17.70;11.30;;;;;;;4.06;83.73;100309.36;129631;1257;115249;-64
2023/01/12 04:04:50;;;;;;;22.20;11.90;;;;;;;4.03;83.83;100302.19;130214;1257;114789;-65
2023/01/12 04:07:59;;;;;;;26.40;13.10;;;;;;;3.99;83.71;100314.98;132671;1257;115143;-68
2023/01/12 04:12:08;;;;;;;22.90;13.20;;;;;;;3.97;83.84;100314.34;130689;1258;128902;-74
2023/01/12 04:14:24;;;;;;;29.80;13.20;;;;;;;3.93;83.89;100319.38;129812;1281;115308;-76
2023/01/12 04:17:28;;;;;;;24.50;13.80;;;;;;;3.90;84.01;100321.01;129748;1264;114681;-76
2023/01/12 04:20:30;;;;;;;21.70;11.50;;;;;;;3.86;84.00;100312.10;129626;1263;114984;-75
2023/01/12 04:23:32;;;;;;;22.70;11.50;;;;;;;3.82;84.04;100311.99;129583;1264;114734;-75
2023/01/12 04:26:34;;;;;;;22.90;12.30;;;;;;;3.78;84.02;100312.63;129528;1281;114730;-76
2023/01/12 04:29:37;;;;;;;23.10;11.30;;;;;;;3.74;84.14;100313.42;129394;1281;129101;-77
2023/01/12 04:32:41;;;;;;;17.90;10.80;;;;;;;3.69;84.09;100308.92;129532;1273;114727;-76
2023/01/12 04:35:45;;;;;;;18.50;10.20;;;;;;;3.63;84.07;100307.82;129892;1262;114819;-71
2023/01/12 04:38:48;;;;;;;19.60;10.20;;;;;;;3.57;84.11;100313.23;129444;1264;114953;-76
2023/01/12 04:41:50;;;;;;;16.10;9.10;;;;;;;3.52;84.17;100315.98;129449;1281;114800;-70
2023/01/12 04:44:53;;;;;;;18.20;10.90;;;;;;;3.48;84.26;100311.64;129370;1270;114900;-73
2023/01/12 04:47:55;;;;;;;15.90;10.70;;;;;;;3.43;84.22;100317.93;129644;1258;114743;-68
2023/01/12 04:50:59;;;;;;;15.20;10.30;;;;;;;3.40;84.31;100318.52;129490;1263;115269;-73
2023/01/12 04:54:01;;;;;;;20.00;11.70;;;;;;;3.37;84.41;100313.99;129603;1259;114712;-70
2023/01/12 04:57:04;;;;;;;16.30;10.80;;;;;;;3.34;84.39;100311.39;129544;1257;114802;-73
2023/01/12 05:00:07;;;;;;;18.40;11.20;;;;;;;3.31;84.48;100311.10;129764;1263;114820;-72
2023/01/12 05:03:14;;;;;;;18.20;11.20;;;;;;;3.27;84.48;100311.00;129412;1264;115098;-72
2023/01/12 05:06:16;;;;;;;17.50;10.00;;;;;;;3.25;84.67;100304.17;129407;1271;114659;-70
2023/01/12 05:12:39;;;;;;;14.20;9.40;;;;;;;3.16;84.63;100294.27;129403;1263;115052;-68
2023/01/12 05:15:41;;;;;;;15.50;10.60;;;;;;;3.13;84.66;100296.27;129645;1281;114721;-69
2023/01/12 05:18:44;;;;;;;18.90;10.50;;;;;;;3.10;84.79;100297.38;129875;1273;114763;-66
2023/01/12 05:21:46;;;;;;;16.00;10.90;;;;;;;3.07;84.83;100299.02;129422;1280;128884;-64
2023/01/12 05:24:48;;;;;;;14.70;10.60;;;;;;;3.02;84.77;100297.70;129418;1281;115271;-63
2023/01/12 05:27:56;;;;;;;19.90;10.90;;;;;;;2.99;84.80;100301.82;129483;1281;115330;-65
2023/01/12 05:31:10;;;;;;;20.10;11.30;;;;;;;2.96;84.90;100301.35;129434;1264;114736;-66
2023/01/12 05:34:12;;;;;;;17.70;11.40;;;;;;;2.94;84.92;100299.44;129385;1281;114743;-64
2023/01/12 05:37:15;;;;;;;16.80;9.90;;;;;;;2.91;84.90;100290.50;129418;1281;114798;-65
2023/01/12 05:40:17;;;;;;;18.50;10.00;;;;;;;2.90;85.02;100280.79;129442;1258;114944;-64
2023/01/12 05:46:40;;;;;;;15.70;9.90;;;;;;;2.89;85.37;100293.34;129713;1264;114795;-71
2023/01/12 05:49:42;;;;;;;15.50;10.50;;;;;;;2.89;85.29;100299.02;129412;1257;114733;-76
2023/01/12 05:52:44;;;;;;;16.80;10.60;;;;;;;2.87;85.24;100304.67;129755;1264;114721;-76
2023/01/12 05:55:47;;;;;;;18.30;10.00;;;;;;;2.86;85.26;100296.77;129724;1273;114911;-68
2023/01/12 05:58:51;;;;;;;21.20;11.40;;;;;;;2.85;85.10;100296.96;129604;1280;114722;-64
2023/01/12 06:01:53;;;;;;;16.90;10.00;;;;;;;2.82;85.16;100306.52;129952;1263;114885;-73
2023/01/12 06:04:55;;;;;;;17.80;9.20;;;;;;;2.80;84.91;100311.51;129790;1257;114832;-76
2023/01/12 06:07:59;;;;;;;20.80;9.70;;;;;;;2.77;84.93;100317.73;129438;1265;114757;-65
2023/01/12 06:11:02;;;;;;;15.30;9.10;;;;;;;2.75;85.02;100319.36;129684;1279;114898;-76
2023/01/12 06:14:05;;;;;;;14.20;8.90;;;;;;;2.71;85.09;100316.23;129992;1260;115097;-76
2023/01/12 06:17:07;;;;;;;16.80;9.30;;;;;;;2.69;85.15;100309.05;129501;1264;114772;-67
2023/01/12 06:20:13;;;;;;;22.00;9.70;;;;;;;2.66;85.14;100306.27;130009;1273;114759;-76
2023/01/12 06:23:16;;;;;;;21.30;10.60;;;;;;;2.65;84.99;100301.55;130018;1264;114746;-68
2023/01/12 06:26:18;;;;;;;22.30;9.60;;;;;;;2.62;85.16;100302.64;129532;1257;114801;-71
2023/01/12 06:29:21;;;;;;;16.60;9.30;;;;;;;2.59;85.06;100299.50;129568;1264;115617;-76
2023/01/12 06:32:23;;;;;;;19.10;9.30;;;;;;;2.57;85.00;100299.54;129758;1264;114736;-71
2023/01/12 06:35:25;;;;;;;16.10;9.10;;;;;;;2.55;85.12;100297.11;129594;1270;128867;-69
2023/01/12 06:38:30;;;;;;;19.60;11.70;;;;;;;2.54;85.02;100305.41;129502;1262;116487;-74
2023/01/12 06:44:56;;;;;;;22.50;11.00;;;;;;;2.48;85.08;100301.46;129388;1258;116582;-63
2023/01/12 06:47:59;;;;;;;16.10;9.50;;;;;;;2.46;85.22;100295.68;129468;1264;114913;-68
2023/01/12 06:51:01;;;;;;;25.20;12.20;;;;;;;2.42;85.10;100289.73;129489;1264;115340;-63
2023/01/12 06:54:03;;;;;;;17.30;11.60;;;;;;;2.39;85.11;100289.63;129500;1273;114814;-63
2023/01/12 06:57:06;;;;;;;27.90;15.00;;;;;;;2.37;85.22;100289.82;129520;1263;114832;-63
2023/01/12 07:00:13;;;;;;;25.90;13.90;;;;;;;2.35;85.44;100290.56;129447;1258;114912;-65
2023/01/12 07:03:17;;;;;;;37.80;18.20;;;;;;;2.34;85.46;100286.52;129510;1258;114803;-63
2023/01/12 07:06:19;;;;;;;46.90;21.20;;;;;;;2.34;85.52;100281.23;129657;1264;115409;-64
2023/01/12 07:09:24;;;;;;;49.50;22.20;;;;;;;2.33;85.42;100281.77;128727;1263;114622;-63
2023/01/12 07:12:28;;;;;;;43.80;22.50;;;;;;;2.33;85.58;100294.65;128517;1264;114781;-64
2023/01/12 07:15:32;;;;;;;37.50;20.10;;;;;;;2.34;85.60;100297.45;129047;1260;113225;-63
2023/01/12 07:18:37;;;;;;;38.20;19.20;;;;;;;2.36;85.52;100295.83;128262;1263;113382;-63
2023/01/12 07:21:46;;;;;;;21.60;11.80;;;;;;;2.37;85.48;100293.71;128206;1264;114464;-63
2023/01/12 07:24:56;;;;;;;30.90;15.70;;;;;;;2.39;85.71;100284.34;128282;1264;128681;-66
2023/01/12 07:27:59;;;;;;;;;;;;;;;2.42;85.93;100287.80;128322;1257;114795;-65
2023/01/12 07:31:08;;;;;;;25.40;13.80;;;;;;;2.45;85.70;100290.23;128394;1263;113438;-62
2023/01/12 07:34:12;;;;;;;22.70;12.70;;;;;;;2.50;85.88;100289.97;128596;1263;113906;-62
2023/01/12 07:37:18;;;;;;;19.90;12.00;;;;;;;2.56;86.15;100286.70;128526;1262;114481;-64
2023/01/12 07:40:23;;;;;;;24.70;13.20;;;;;;;2.62;85.96;100292.58;128297;1263;128986;-64
2023/01/12 07:43:28;;;;;;;19.40;11.80;;;;;;;2.71;86.02;100296.85;128524;1257;114832;-64
2023/01/12 07:46:33;;;;;;;19.80;13.40;;;;;;;2.81;86.22;100293.15;128501;1262;113308;-68
2023/01/12 07:49:38;;;;;;;25.70;13.70;;;;;;;2.90;86.32;100300.39;128377;1263;113613;-63
2023/01/12 07:52:43;;;;;;;;;;;;;;;3.01;86.47;100299.30;128394;1257;113774;-64
2023/01/12 07:55:50;;;;;;;31.50;16.70;;;;;;;3.14;86.47;100295.20;128251;1265;127796;-62
2023/01/12 07:58:55;;;;;;;29.80;16.10;;;;;;;3.28;86.81;100296.68;128347;1264;114784;-68
2023/01/12 08:02:00;;;;;;;30.70;16.00;;;;;;;3.41;86.59;100293.77;128491;1263;113248;-63
2023/01/12 08:05:06;;;;;;;24.90;15.20;;;;;;;3.54;86.46;100291.39;128399;1257;113312;-67
2023/01/12 08:08:10;;;;;;;;;;;;;;;3.65;86.11;100286.04;128333;1257;113486;-63
2023/01/12 08:11:15;;;;;;;25.70;14.30;;;;;;;3.76;86.26;100285.27;128576;1263;128139;-65
2023/01/12 08:14:32;;;;;;;28.80;15.00;;;;;;;3.87;86.05;100283.64;128472;1262;114733;-64
2023/01/12 08:17:46;;;;;;;31.10;14.70;;;;;;;3.96;85.99;100280.42;128352;1261;113701;-65
2023/01/12 08:20:54;;;;;;;28.10;14.30;;;;;;;4.07;86.08;100277.00;128242;1257;113621;-64
2023/01/12 08:24:00;;;;;;;25.00;12.60;;;;;;;4.17;85.95;100278.89;128385;1264;113476;-64
2023/01/12 08:27:08;;;;;;;22.70;12.50;;;;;;;4.28;86.06;100280.77;128229;1263;128033;-64
2023/01/12 08:30:16;;;;;;;20.50;11.60;;;;;;;4.38;85.84;100280.32;128297;1257;115368;-65
2023/01/12 08:33:23;;;;;;;19.40;10.80;;;;;;;4.50;86.01;100285.17;128433;1257;113534;-62
2023/01/12 08:36:27;;;;;;;;;;;;;;;4.59;85.73;100288.30;128523;1264;113403;-63
2023/01/12 08:39:34;;;;;;;19.60;10.40;;;;;;;4.68;85.78;100284.37;128503;1257;114070;-66
2023/01/12 08:42:38;;;;;;;18.40;10.10;;;;;;;4.79;85.81;100286.20;131346;1258;126997;-79
2023/01/12 08:45:42;;;;;;;19.20;9.70;;;;;;;4.90;85.59;100286.28;131381;1257;114865;-81
2023/01/12 08:48:48;;;;;;;23.00;9.00;;;;;;;5.02;85.62;100289.34;128317;1257;113472;-64
2023/01/12 08:51:54;;;;;;;17.00;7.90;;;;;;;5.16;85.44;100290.89;128440;1257;113327;-70
2023/01/12 08:54:58;;;;;;;;;;;;;;;5.30;85.64;100288.93;128372;1257;114003;-76
2023/01/12 08:58:05;;;;;;;15.40;7.60;;;;;;;5.43;85.54;100289.09;128779;1257;128714;-75
2023/01/12 09:01:13;;;;;;;17.80;7.50;;;;;;;5.56;85.43;100285.70;128536;1257;114610;-70
2023/01/12 09:04:18;;;;;;;22.10;7.10;;;;;;;5.69;85.35;100281.43;128678;1257;113586;-69
2023/01/12 09:07:21;;;;;;;17.50;6.50;;;;;;;5.81;85.16;100284.96;128571;1259;113517;-67
2023/01/12 09:10:28;;;;;;;12.40;4.70;;;;;;;5.94;85.04;100278.55;128222;1258;114549;-70
2023/01/12 09:13:35;;;;;;;10.30;4.90;;;;;;;6.07;84.76;100276.59;129043;1264;129097;-65
2023/01/12 09:16:44;;;;;;;13.40;5.10;;;;;;;6.21;84.72;100272.43;128599;1257;115335;-74
2023/01/12 09:19:50;;;;;;;23.00;12.40;;;;;;;6.34;84.62;100271.64;128516;1257;113599;-74
2023/01/12 09:22:57;;;;;;;27.80;13.40;;;;;;;6.48;84.43;100267.48;128717;1257;113231;-65
2023/01/12 09:26:15;;;;;;;21.90;14.40;;;;;;;6.63;84.28;100269.48;128598;1257;113421;-76
2023/01/12 09:29:19;;;;;;;20.30;11.20;;;;;;;6.80;83.96;100268.70;128587;1258;128262;-70
2023/01/12 09:32:25;;;;;;;13.60;6.50;;;;;;;7.02;84.14;100274.89;131474;1262;115180;-73
2023/01/12 09:35:30;;;;;;;17.50;7.10;;;;;;;7.29;83.83;100271.59;128409;1257;113480;-61
2023/01/12 09:38:41;;;;;;;16.70;8.40;;;;;;;7.58;84.18;100270.90;128247;1263;113564;-62
2023/01/12 09:48:48;;;;;;;20.10;8.90;;;;;;;8.45;82.05;100250.59;128294;1261;115245;-62
2023/01/12 09:52:14;;;;;;;34.90;19.40;;;;;;;8.63;81.83;100248.25;128353;1257;113466;-62
2023/01/12 09:55:23;;;;;;;46.90;23.10;;;;;;;8.80;80.77;100251.64;128153;1261;113466;-63
2023/01/12 09:59:11;;;;;;;23.30;11.80;;;;;;;8.94;80.83;100251.92;128260;1258;113428;-65
2023/01/12 10:02:20;;;;;;;13.50;6.20;;;;;;;9.13;80.34;100248.23;128101;1258;127731;-62
2023/01/12 10:05:37;;;;;;;12.30;7.40;;;;;;;9.28;79.84;100241.54;128158;1257;115038;-63
2023/01/12 10:08:42;;;;;;;12.60;6.00;;;;;;;9.42;79.71;100239.66;128054;1258;113378;-64
2023/01/12 10:12:12;;;;;;;20.20;9.20;;;;;;;9.49;78.38;100244.70;128159;1263;113631;-65
2023/01/12 10:15:47;;;;;;;13.30;6.50;;;;;;;9.53;78.12;100233.41;128233;1262;113257;-64
2023/01/12 10:18:56;;;;;;;19.40;8.20;;;;;;;9.60;78.19;100234.02;128341;1263;127738;-63
2023/01/12 10:22:02;;;;;;;11.20;5.00;;;;;;;9.67;77.84;100224.40;128464;1258;114772;-63
2023/01/12 10:25:07;;;;;;;15.80;4.30;;;;;;;9.74;77.82;100223.39;128653;1260;113543;-65
2023/01/12 10:28:29;;;;;;;11.80;4.50;;;;;;;9.78;77.04;100221.23;128639;1258;115367;-64
2023/01/12 10:31:38;;;;;;;11.30;3.90;;;;;;;9.81;76.82;100219.98;128626;1257;113526;-64
2023/01/12 10:34:52;;;;;;;10.20;4.40;;;;;;;9.82;76.27;100212.30;128616;1257;128911;-63
2023/01/12 10:37:59;;;;;;;9.20;3.60;;;;;;;9.90;75.90;100216.20;128742;1258;114712;-64
2023/01/12 10:41:20;;;;;;;10.30;3.40;;;;;;;9.95;76.00;100212.41;128533;1257;113355;-64
2023/01/12 10:44:26;;;;;;;14.50;3.60;;;;;;;9.99;75.49;100203.98;128552;1263;113238;-64
2023/01/12 10:47:32;;;;;;;14.90;3.70;;;;;;;10.03;75.19;100200.73;128555;1257;113184;-65
2023/01/12 10:50:36;;;;;;;9.30;3.90;;;;;;;10.08;75.13;100198.05;128425;1258;128017;-65
2023/01/12 10:53:46;;;;;;;13.10;4.90;;;;;;;10.12;75.06;100189.80;128415;1263;114849;-63
2023/01/12 10:57:00;;;;;;;12.00;4.40;;;;;;;10.18;74.55;100186.11;128449;1259;113291;-65
2023/01/12 11:00:16;;;;;;;17.00;4.30;;;;;;;10.22;74.12;100173.92;128445;1263;114671;-63
2023/01/12 11:03:41;;;;;;;10.90;3.80;;;;;;;10.26;74.61;100165.71;128593;1257;113760;-63
2023/01/12 11:06:55;;;;;;;13.70;6.00;;;;;;;10.29;73.86;100160.93;128640;1258;127929;-63
2023/01/12 11:10:20;;;;;;;19.90;10.00;;;;;;;10.28;73.84;100150.98;128408;1264;115291;-63
2023/01/12 11:13:35;;;;;;;15.20;7.10;;;;;;;10.25;73.41;100140.27;128543;1261;113461;-63
2023/01/12 11:17:21;;;;;;;11.90;4.70;;;;;;;10.20;72.48;100134.27;128273;1258;113481;-64
2023/01/12 11:20:52;;;;;;;14.10;7.70;;;;;;;10.07;71.88;100124.23;128415;1280;113216;-62
2023/01/12 11:24:15;;;;;;;25.80;12.50;;;;;;;10.01;72.50;100121.80;128267;1258;127787;-61
2023/01/12 11:27:28;;;;;;;14.90;6.70;;;;;;;9.97;72.09;100116.14;128081;1258;115060;-61
2023/01/12 11:30:52;;;;;;;11.60;5.10;;;;;;;9.93;71.72;100107.23;128360;1262;113427;-61
2023/01/12 11:34:17;;;;;;;13.30;4.60;;;;;;;9.88;71.84;100107.10;128235;1258;113232;-60
2023/01/12 11:37:22;;;;;;;11.90;6.40;;;;;;;9.85;71.88;100101.89;128406;1263;113631;-62
2023/01/12 11:40:36;;;;;;;15.30;11.40;;;;;;;9.83;71.60;100093.42;128186;1258;128765;-61
2023/01/12 11:44:05;;;;;;;19.20;8.70;;;;;;;9.79;71.51;100089.02;128196;1264;114731;-62
2023/01/12 11:47:15;;;;;;;14.90;6.10;;;;;;;9.74;71.66;100081.59;128385;1258;113349;-61
2023/01/12 11:50:30;;;;;;;11.20;3.80;;;;;;;9.71;71.08;100082.46;128385;1258;113267;-62
2023/01/12 11:53:36;;;;;;;11.70;4.20;;;;;;;9.67;71.54;100081.92;128452;1280;113256;-61
2023/01/12 11:57:17;;;;;;;9.80;3.90;;;;;;;9.66;71.39;100075.55;128407;1262;127879;-63
2023/01/12 12:00:50;;;;;;;13.20;3.50;;;;;;;9.62;70.86;100070.79;128304;1263;115207;-62
2023/01/12 12:04:28;;;;;;;11.00;4.10;;;;;;;9.61;70.93;100072.94;128562;1263;113415;-63
2023/01/12 12:08:03;;;;;;;11.40;5.00;;;;;;;9.59;70.51;100076.81;128435;1257;113460;-64
2023/01/12 12:11:15;;;;;;;10.30;4.00;;;;;;;9.55;70.45;100073.41;128249;1264;114855;-64
2023/01/12 12:14:28;;;;;;;9.80;4.90;;;;;;;9.51;70.25;100076.82;128513;1263;128271;-62
2023/01/12 12:17:57;;;;;;;11.20;5.00;;;;;;;9.48;70.45;100078.60;128615;1257;114711;-62
2023/01/12 12:21:38;;;;;;;9.10;4.60;;;;;;;9.44;69.75;100074.46;128377;1263;113145;-63
2023/01/12 12:24:53;;;;;;;11.60;5.40;;;;;;;9.40;70.16;100066.29;129096;1264;113458;-64
2023/01/12 12:28:24;;;;;;;8.40;3.50;;;;;;;9.39;70.15;100059.20;129826;1258;113308;-63
2023/01/12 12:31:52;;;;;;;10.50;4.60;;;;;;;9.37;69.79;100053.23;129109;1258;128631;-63
2023/01/12 12:35:21;;;;;;;9.10;4.70;;;;;;;9.36;70.01;100045.48;128569;1258;115093;-64
2023/01/12 12:38:47;;;;;;;12.40;4.80;;;;;;;9.33;69.63;100046.86;128476;1263;114024;-64
2023/01/12 12:46:13;;;;;;;17.60;6.10;;;;;;;9.25;69.52;100039.20;128459;1264;113593;-65
2023/01/12 12:49:24;;;;;;;10.20;4.70;;;;;;;9.21;69.65;100040.33;128433;1280;128678;-64
2023/01/12 12:52:34;;;;;;;9.50;4.70;;;;;;;9.17;69.68;100034.77;128545;1262;115281;-65
2023/01/12 12:55:44;;;;;;;10.50;3.40;;;;;;;9.14;69.43;100036.02;128395;1258;113309;-65
2023/01/12 12:58:55;;;;;;;8.70;4.20;;;;;;;9.11;69.41;100032.59;128338;1258;113181;-64
2023/01/12 13:02:01;;;;;;;10.20;4.70;;;;;;;9.08;69.43;100036.14;128313;1260;113469;-65
2023/01/12 13:05:10;;;;;;;21.60;9.50;;;;;;;9.05;69.76;100041.40;131256;1258;128910;-64
2023/01/12 13:08:24;;;;;;;14.00;6.90;;;;;;;9.05;69.62;100041.43;128475;1258;115271;-64
2023/01/12 13:11:54;;;;;;;25.40;10.80;;;;;;;9.02;69.24;100042.45;128355;1262;114482;-65
2023/01/12 13:15:21;;;;;;;16.90;7.90;;;;;;;8.98;69.35;100041.76;129056;1258;114740;-65
2023/01/12 13:18:54;;;;;;;14.20;5.10;;;;;;;8.93;69.23;100041.79;128403;1264;114657;-64
2023/01/12 13:22:16;;;;;;;34.20;17.10;;;;;;;8.90;69.08;100038.21;129320;1263;129936;-64
2023/01/12 13:25:26;;;;;;;25.20;13.80;;;;;;;8.87;69.28;100033.01;128238;1262;115280;-65
2023/01/12 13:28:33;;;;;;;20.30;9.30;;;;;;;8.85;69.23;100035.63;128032;1268;114587;-63
2023/01/12 13:31:38;;;;;;;14.90;7.40;;;;;;;8.81;68.96;100033.64;128027;1267;114413;-64
2023/01/12 13:34:45;;;;;;;12.60;5.10;;;;;;;8.77;68.96;100030.42;128081;1262;115293;-64
2023/01/12 13:38:14;;;;;;;18.40;7.60;;;;;;;8.73;68.67;100028.30;128055;1262;129363;-65
2023/01/12 13:44:58;;;;;;;29.30;14.90;;;;;;;8.66;69.44;100018.31;127534;1268;114822;-64
2023/01/12 13:48:05;;;;;;;27.70;11.90;;;;;;;8.61;69.03;100019.92;127562;1268;113798;-64
2023/01/12 13:51:33;;;;;;;21.10;11.60;;;;;;;8.58;69.43;100019.02;127453;1268;113378;-65
2023/01/12 13:54:50;;;;;;;19.10;7.60;;;;;;;8.55;69.35;100015.77;127451;1290;127957;-64
2023/01/12 13:57:59;;;;;;;11.90;5.20;;;;;;;8.51;69.42;100012.92;127367;1271;113694;-68
2023/01/12 14:01:04;;;;;;;11.50;6.30;;;;;;;8.47;69.29;100015.75;126676;1267;1615981;-69
2023/01/12 14:04:17;;;;;;;39.90;23.90;;;;;;;8.43;69.41;100018.06;127732;1265;113426;-68
2023/01/12 14:07:45;;;;;;;39.70;24.20;;;;;;;8.40;69.45;100015.17;127666;1267;113832;-65
2023/01/12 14:11:04;;;;;;;13.70;6.30;;;;;;;8.39;69.52;100017.70;127615;1287;127905;-65
2023/01/12 14:18:13;;;;;;;13.30;4.10;;;;;;;8.41;69.96;100004.61;127889;1267;113438;-64
2023/01/12 14:21:32;;;;;;;13.80;5.50;;;;;;;8.43;69.77;100002.60;128425;1261;113480;-66
2023/01/12 14:24:40;;;;;;;18.10;6.20;;;;;;;8.44;69.82;99997.90;131279;1259;114745;-65
2023/01/12 14:27:56;;;;;;;11.90;4.80;;;;;;;8.45;69.77;99995.70;129032;1261;115070;-65
2023/01/12 14:31:02;;;;;;;9.50;4.50;;;;;;;8.48;69.92;99992.95;128483;1259;115471;-64
2023/01/12 14:34:19;;;;;;;18.30;7.30;;;;;;;8.49;69.68;99991.30;128395;1257;113186;-66
2023/01/12 14:37:34;;;;;;;10.50;5.80;;;;;;;8.49;69.92;99985.60;128379;1259;113626;-64
2023/01/12 14:40:48;;;;;;;14.60;8.00;;;;;;;8.50;70.10;99982.55;128309;1261;113134;-66
2023/01/12 14:47:25;;;;;;;11.40;5.60;;;;;;;8.47;69.98;99983.90;128751;1258;114089;-63
2023/01/12 14:50:30;;;;;;;20.00;8.50;;;;;;;8.45;69.91;99982.20;128453;1261;113274;-63
2023/01/12 14:53:39;;;;;;;17.60;6.90;;;;;;;8.43;69.68;99981.92;128850;1262;113343;-64
2023/01/12 14:56:55;;;;;;;22.30;9.40;;;;;;;8.43;70.04;99983.90;128416;1261;113350;-64
2023/01/12 15:00:01;;;;;;;21.00;11.10;;;;;;;8.41;70.11;99983.27;128533;1258;127861;-66